sensor_id;sensor_type;location;lat;lon;timestamp;temperature;humidity
26378;DHT22;14078;50.974;6.786;2023-10-13T00:01:02;16.20;99.90
26378;DHT22;14078;50.974;6.786;2023-10-13T00:03:32;16.20;99.90
26378;DHT22;14078;50.974;6.786;2023-10-13T00:05:59;16.20;99.90
26378;DHT22;14078;50.974;6.786;2023-10-13T00:08:28;16.20;99.90
26378;DHT22;14078;50.974;6.786;2023-10-13T00:10:57;16.20;99.90
26378;DHT22;14078;50.974;6.786;2023-10-13T00:13:26;16.30;99.90
26378;DHT22;14078;50.974;6.786;2023-10-13T00:15:53;16.30;99.90
26378;DHT22;14078;50.974;6.786;2023-10-13T00:18:24;16.30;99.90
26378;DHT22;14078;50.974;6.786;2023-10-13T00:20:52;16.30;99.90
26378;DHT22;14078;50.974;6.786;2023-10-13T00:23:22;16.30;99.90
26378;DHT22;14078;50.974;6.786;2023-10-13T00:25:52;16.40;99.90
26378;DHT22;14078;50.974;6.786;2023-10-13T00:28:26;16.40;99.90
26378;DHT22;14078;50.974;6.786;2023-10-13T00:31:01;16.30;99.90
26378;DHT22;14078;50.974;6.786;2023-10-13T00:33:31;16.30;99.90
26378;DHT22;14078;50.974;6.786;2023-10-13T00:35:58;16.30;99.90
26378;DHT22;14078;50.974;6.786;2023-10-13T00:38:26;16.30;99.90
26378;DHT22;14078;50.974;6.786;2023-10-13T00:40:53;16.30;99.90
26378;DHT22;14078;50.974;6.786;2023-10-13T00:43:20;16.30;99.90
26378;DHT22;14078;50.974;6.786;2023-10-13T00:46:02;16.20;99.90
26378;DHT22;14078;50.974;6.786;2023-10-13T00:48:35;16.20;99.90
26378;DHT22;14078;50.974;6.786;2023-10-13T00:51:08;16.20;99.90
26378;DHT22;14078;50.974;6.786;2023-10-13T00:53:39;16.20;99.90
26378;DHT22;14078;50.974;6.786;2023-10-13T00:56:07;16.20;99.90
26378;DHT22;14078;50.974;6.786;2023-10-13T00:58:33;16.20;99.90
26378;DHT22;14078;50.974;6.786;2023-10-13T01:01:02;16.20;99.90
26378;DHT22;14078;50.974;6.786;2023-10-13T01:03:43;16.20;99.90
26378;DHT22;14078;50.974;6.786;2023-10-13T01:06:10;16.20;99.90
26378;DHT22;14078;50.974;6.786;2023-10-13T01:08:37;16.20;99.90
26378;DHT22;14078;50.974;6.786;2023-10-13T01:11:04;16.30;99.90
26378;DHT22;14078;50.974;6.786;2023-10-13T01:13:32;16.30;99.90
26378;DHT22;14078;50.974;6.786;2023-10-13T01:16:03;16.20;99.90
26378;DHT22;14078;50.974;6.786;2023-10-13T01:18:29;16.20;99.90
26378;DHT22;14078;50.974;6.786;2023-10-13T01:20:56;16.20;99.90
26378;DHT22;14078;50.974;6.786;2023-10-13T01:23:26;16.20;99.90
26378;DHT22;14078;50.974;6.786;2023-10-13T01:26:03;16.20;99.90
26378;DHT22;14078;50.974;6.786;2023-10-13T01:28:31;16.20;99.90
26378;DHT22;14078;50.974;6.786;2023-10-13T01:31:10;16.20;99.90
26378;DHT22;14078;50.974;6.786;2023-10-13T01:33:37;16.20;99.90
26378;DHT22;14078;50.974;6.786;2023-10-13T01:36:03;16.30;99.90
26378;DHT22;14078;50.974;6.786;2023-10-13T01:38:35;16.40;99.90
26378;DHT22;14078;50.974;6.786;2023-10-13T01:41:05;16.30;99.90
26378;DHT22;14078;50.974;6.786;2023-10-13T01:43:34;16.30;99.90
26378;DHT22;14078;50.974;6.786;2023-10-13T01:46:00;16.30;99.90
26378;DHT22;14078;50.974;6.786;2023-10-13T01:48:29;16.30;99.90
26378;DHT22;14078;50.974;6.786;2023-10-13T01:50:57;16.30;99.90
26378;DHT22;14078;50.974;6.786;2023-10-13T01:53:26;16.30;99.90
26378;DHT22;14078;50.974;6.786;2023-10-13T01:55:55;16.30;99.90
26378;DHT22;14078;50.974;6.786;2023-10-13T01:58:24;16.30;99.90
26378;DHT22;14078;50.974;6.786;2023-10-13T02:00:52;16.30;99.90
26378;DHT22;14078;50.974;6.786;2023-10-13T02:03:18;16.30;99.90
26378;DHT22;14078;50.974;6.786;2023-10-13T02:05:48;16.30;99.90
26378;DHT22;14078;50.974;6.786;2023-10-13T02:08:14;16.30;99.90
26378;DHT22;14078;50.974;6.786;2023-10-13T02:10:48;16.30;99.90
26378;DHT22;14078;50.974;6.786;2023-10-13T02:13:16;16.30;99.90
26378;DHT22;14078;50.974;6.786;2023-10-13T02:15:44;16.30;99.90
26378;DHT22;14078;50.974;6.786;2023-10-13T02:18:12;16.30;99.90
26378;DHT22;14078;50.974;6.786;2023-10-13T02:20:39;16.30;99.90
26378;DHT22;14078;50.974;6.786;2023-10-13T02:23:09;16.30;99.90
26378;DHT22;14078;50.974;6.786;2023-10-13T02:25:37;16.30;99.90
26378;DHT22;14078;50.974;6.786;2023-10-13T02:28:08;16.30;99.90
26378;DHT22;14078;50.974;6.786;2023-10-13T02:30:38;16.30;99.90
26378;DHT22;14078;50.974;6.786;2023-10-13T02:33:04;16.30;99.90
26378;DHT22;14078;50.974;6.786;2023-10-13T02:35:32;16.30;99.90
26378;DHT22;14078;50.974;6.786;2023-10-13T02:38:12;16.30;99.90
26378;DHT22;14078;50.974;6.786;2023-10-13T02:40:39;16.30;99.90
26378;DHT22;14078;50.974;6.786;2023-10-13T02:43:05;16.30;99.90
26378;DHT22;14078;50.974;6.786;2023-10-13T02:45:32;16.30;99.90
26378;DHT22;14078;50.974;6.786;2023-10-13T02:47:59;16.30;99.90
26378;DHT22;14078;50.974;6.786;2023-10-13T02:50:40;16.30;99.90
26378;DHT22;14078;50.974;6.786;2023-10-13T02:53:09;16.30;99.90
26378;DHT22;14078;50.974;6.786;2023-10-13T02:55:48;16.30;99.90
26378;DHT22;14078;50.974;6.786;2023-10-13T02:58:15;16.30;99.90
26378;DHT22;14078;50.974;6.786;2023-10-13T03:00:40;16.30;99.90
26378;DHT22;14078;50.974;6.786;2023-10-13T03:03:08;16.30;99.90
26378;DHT22;14078;50.974;6.786;2023-10-13T03:05:34;16.30;99.90
26378;DHT22;14078;50.974;6.786;2023-10-13T03:08:05;16.30;99.90
26378;DHT22;14078;50.974;6.786;2023-10-13T03:10:30;16.30;99.90
26378;DHT22;14078;50.974;6.786;2023-10-13T03:12:58;16.30;99.90
26378;DHT22;14078;50.974;6.786;2023-10-13T03:15:24;16.40;99.90
26378;DHT22;14078;50.974;6.786;2023-10-13T03:17:56;16.40;99.90
26378;DHT22;14078;50.974;6.786;2023-10-13T03:20:25;16.30;99.90
26378;DHT22;14078;50.974;6.786;2023-10-13T03:22:57;16.30;99.90
26378;DHT22;14078;50.974;6.786;2023-10-13T03:25:23;16.30;99.90
26378;DHT22;14078;50.974;6.786;2023-10-13T03:27:55;16.30;99.90
26378;DHT22;14078;50.974;6.786;2023-10-13T03:30:27;16.40;99.90
26378;DHT22;14078;50.974;6.786;2023-10-13T03:33:00;16.40;99.90
26378;DHT22;14078;50.974;6.786;2023-10-13T03:35:33;16.40;99.90
26378;DHT22;14078;50.974;6.786;2023-10-13T03:38:04;16.40;99.90
26378;DHT22;14078;50.974;6.786;2023-10-13T03:40:37;16.40;99.90
26378;DHT22;14078;50.974;6.786;2023-10-13T03:43:05;16.40;99.90
26378;DHT22;14078;50.974;6.786;2023-10-13T03:45:36;16.40;99.90
26378;DHT22;14078;50.974;6.786;2023-10-13T03:48:06;16.40;99.90
26378;DHT22;14078;50.974;6.786;2023-10-13T03:50:37;16.40;99.90
26378;DHT22;14078;50.974;6.786;2023-10-13T03:53:11;16.40;99.90
26378;DHT22;14078;50.974;6.786;2023-10-13T03:55:38;16.40;99.90
26378;DHT22;14078;50.974;6.786;2023-10-13T03:58:05;16.40;99.90
26378;DHT22;14078;50.974;6.786;2023-10-13T04:00:32;16.40;99.90
26378;DHT22;14078;50.974;6.786;2023-10-13T04:03:01;16.40;99.90
26378;DHT22;14078;50.974;6.786;2023-10-13T04:05:36;16.40;99.90
26378;DHT22;14078;50.974;6.786;2023-10-13T04:08:10;16.30;99.90
26378;DHT22;14078;50.974;6.786;2023-10-13T04:10:56;16.40;99.90
26378;DHT22;14078;50.974;6.786;2023-10-13T04:13:41;16.40;99.90
26378;DHT22;14078;50.974;6.786;2023-10-13T04:16:30;16.40;99.90
26378;DHT22;14078;50.974;6.786;2023-10-13T04:19:00;16.50;99.90
26378;DHT22;14078;50.974;6.786;2023-10-13T04:21:36;16.40;99.90
26378;DHT22;14078;50.974;6.786;2023-10-13T04:24:06;16.40;99.90
26378;DHT22;14078;50.974;6.786;2023-10-13T04:26:49;16.50;99.90
26378;DHT22;14078;50.974;6.786;2023-10-13T04:29:44;16.50;99.90
26378;DHT22;14078;50.974;6.786;2023-10-13T04:32:18;16.50;99.90
26378;DHT22;14078;50.974;6.786;2023-10-13T04:34:54;16.50;99.90
26378;DHT22;14078;50.974;6.786;2023-10-13T04:37:24;16.50;99.90
26378;DHT22;14078;50.974;6.786;2023-10-13T04:39:55;16.50;99.90
26378;DHT22;14078;50.974;6.786;2023-10-13T04:42:25;16.50;99.90
26378;DHT22;14078;50.974;6.786;2023-10-13T04:45:15;16.50;99.90
26378;DHT22;14078;50.974;6.786;2023-10-13T04:48:04;16.50;99.90
26378;DHT22;14078;50.974;6.786;2023-10-13T04:50:43;16.50;99.90
26378;DHT22;14078;50.974;6.786;2023-10-13T04:53:12;16.50;99.90
26378;DHT22;14078;50.974;6.786;2023-10-13T04:55:57;16.50;99.90
26378;DHT22;14078;50.974;6.786;2023-10-13T04:58:33;16.60;99.90
26378;DHT22;14078;50.974;6.786;2023-10-13T05:01:23;16.60;99.90
26378;DHT22;14078;50.974;6.786;2023-10-13T05:04:10;16.60;99.90
26378;DHT22;14078;50.974;6.786;2023-10-13T05:06:46;16.70;99.90
26378;DHT22;14078;50.974;6.786;2023-10-13T05:09:28;16.70;99.90
26378;DHT22;14078;50.974;6.786;2023-10-13T05:12:13;16.80;99.90
26378;DHT22;14078;50.974;6.786;2023-10-13T05:14:57;16.70;99.90
26378;DHT22;14078;50.974;6.786;2023-10-13T05:17:41;16.70;99.90
26378;DHT22;14078;50.974;6.786;2023-10-13T05:20:26;16.70;99.90
26378;DHT22;14078;50.974;6.786;2023-10-13T05:23:10;16.70;99.90
26378;DHT22;14078;50.974;6.786;2023-10-13T05:26:10;16.70;99.90
26378;DHT22;14078;50.974;6.786;2023-10-13T05:28:54;16.70;99.90
26378;DHT22;14078;50.974;6.786;2023-10-13T05:31:39;16.80;99.90
26378;DHT22;14078;50.974;6.786;2023-10-13T05:34:23;16.80;99.90
26378;DHT22;14078;50.974;6.786;2023-10-13T05:37:07;16.80;99.90
26378;DHT22;14078;50.974;6.786;2023-10-13T05:39:51;16.80;99.90
26378;DHT22;14078;50.974;6.786;2023-10-13T05:42:37;16.80;99.90
26378;DHT22;14078;50.974;6.786;2023-10-13T05:45:21;16.80;99.90
26378;DHT22;14078;50.974;6.786;2023-10-13T05:48:02;16.90;99.90
26378;DHT22;14078;50.974;6.786;2023-10-13T05:50:37;16.80;99.90
26378;DHT22;14078;50.974;6.786;2023-10-13T05:53:21;16.80;99.90
26378;DHT22;14078;50.974;6.786;2023-10-13T05:56:05;16.90;99.90
26378;DHT22;14078;50.974;6.786;2023-10-13T05:58:50;16.80;99.90
26378;DHT22;14078;50.974;6.786;2023-10-13T06:01:35;16.80;99.90
26378;DHT22;14078;50.974;6.786;2023-10-13T06:04:19;16.80;99.90
26378;DHT22;14078;50.974;6.786;2023-10-13T06:07:03;16.80;99.90
26378;DHT22;14078;50.974;6.786;2023-10-13T06:09:47;16.80;99.90
26378;DHT22;14078;50.974;6.786;2023-10-13T06:12:31;16.80;99.90
26378;DHT22;14078;50.974;6.786;2023-10-13T06:15:16;16.80;99.90
26378;DHT22;14078;50.974;6.786;2023-10-13T06:18:00;16.80;99.90
26378;DHT22;14078;50.974;6.786;2023-10-13T06:20:44;16.80;99.90
26378;DHT22;14078;50.974;6.786;2023-10-13T06:23:28;16.70;99.90
26378;DHT22;14078;50.974;6.786;2023-10-13T06:26:13;16.80;99.90
26378;DHT22;14078;50.974;6.786;2023-10-13T06:28:57;16.80;99.90
26378;DHT22;14078;50.974;6.786;2023-10-13T06:31:25;16.80;99.90
26378;DHT22;14078;50.974;6.786;2023-10-13T06:33:52;16.80;99.90
26378;DHT22;14078;50.974;6.786;2023-10-13T06:36:20;16.80;99.90
26378;DHT22;14078;50.974;6.786;2023-10-13T06:38:47;16.80;99.90
26378;DHT22;14078;50.974;6.786;2023-10-13T06:41:20;16.90;99.90
26378;DHT22;14078;50.974;6.786;2023-10-13T06:43:55;16.90;99.90
26378;DHT22;14078;50.974;6.786;2023-10-13T06:46:27;17.00;99.90
26378;DHT22;14078;50.974;6.786;2023-10-13T06:48:55;17.00;99.90
26378;DHT22;14078;50.974;6.786;2023-10-13T06:51:25;17.00;99.90
26378;DHT22;14078;50.974;6.786;2023-10-13T06:53:56;17.10;99.90
26378;DHT22;14078;50.974;6.786;2023-10-13T06:56:23;17.10;99.90
26378;DHT22;14078;50.974;6.786;2023-10-13T06:58:54;17.20;99.90
26378;DHT22;14078;50.974;6.786;2023-10-13T07:01:27;17.20;99.90
26378;DHT22;14078;50.974;6.786;2023-10-13T07:03:54;17.20;99.90
26378;DHT22;14078;50.974;6.786;2023-10-13T07:06:26;17.20;99.90
26378;DHT22;14078;50.974;6.786;2023-10-13T07:08:53;17.30;99.90
26378;DHT22;14078;50.974;6.786;2023-10-13T07:11:24;17.30;99.90
26378;DHT22;14078;50.974;6.786;2023-10-13T07:14:00;17.30;99.90
26378;DHT22;14078;50.974;6.786;2023-10-13T07:16:42;17.30;99.90
26378;DHT22;14078;50.974;6.786;2023-10-13T07:19:12;17.40;99.90
26378;DHT22;14078;50.974;6.786;2023-10-13T07:21:43;17.40;99.90
26378;DHT22;14078;50.974;6.786;2023-10-13T07:24:11;17.40;99.90
26378;DHT22;14078;50.974;6.786;2023-10-13T07:26:38;17.40;99.90
26378;DHT22;14078;50.974;6.786;2023-10-13T07:29:08;17.40;99.90
26378;DHT22;14078;50.974;6.786;2023-10-13T07:31:36;17.50;99.90
26378;DHT22;14078;50.974;6.786;2023-10-13T07:34:06;17.50;99.90
26378;DHT22;14078;50.974;6.786;2023-10-13T07:36:39;17.50;99.90
26378;DHT22;14078;50.974;6.786;2023-10-13T07:39:06;17.50;99.90
26378;DHT22;14078;50.974;6.786;2023-10-13T07:41:46;17.50;99.90
26378;DHT22;14078;50.974;6.786;2023-10-13T07:44:17;17.60;99.90
26378;DHT22;14078;50.974;6.786;2023-10-13T07:46:46;17.60;99.90
26378;DHT22;14078;50.974;6.786;2023-10-13T07:49:25;17.60;99.90
26378;DHT22;14078;50.974;6.786;2023-10-13T07:51:56;17.70;99.90
26378;DHT22;14078;50.974;6.786;2023-10-13T07:54:26;17.70;99.90
26378;DHT22;14078;50.974;6.786;2023-10-13T07:56:52;17.70;99.90
26378;DHT22;14078;50.974;6.786;2023-10-13T07:59:20;17.80;99.90
26378;DHT22;14078;50.974;6.786;2023-10-13T08:01:49;17.80;99.90
26378;DHT22;14078;50.974;6.786;2023-10-13T08:04:37;17.90;99.90
26378;DHT22;14078;50.974;6.786;2023-10-13T08:07:04;18.00;99.90
26378;DHT22;14078;50.974;6.786;2023-10-13T08:09:38;18.00;99.90
26378;DHT22;14078;50.974;6.786;2023-10-13T08:12:07;18.00;99.90
26378;DHT22;14078;50.974;6.786;2023-10-13T08:14:37;18.10;99.90
26378;DHT22;14078;50.974;6.786;2023-10-13T08:17:06;18.10;99.90
26378;DHT22;14078;50.974;6.786;2023-10-13T08:19:36;18.10;99.90
26378;DHT22;14078;50.974;6.786;2023-10-13T08:22:11;18.10;99.90
26378;DHT22;14078;50.974;6.786;2023-10-13T08:24:51;18.20;99.90
26378;DHT22;14078;50.974;6.786;2023-10-13T08:27:38;18.20;99.90
26378;DHT22;14078;50.974;6.786;2023-10-13T08:30:15;18.30;99.90
26378;DHT22;14078;50.974;6.786;2023-10-13T08:32:53;18.40;99.90
26378;DHT22;14078;50.974;6.786;2023-10-13T08:35:24;18.50;99.90
26378;DHT22;14078;50.974;6.786;2023-10-13T08:38:01;18.60;99.90
26378;DHT22;14078;50.974;6.786;2023-10-13T08:40:43;18.70;99.90
26378;DHT22;14078;50.974;6.786;2023-10-13T08:43:10;18.80;99.90
26378;DHT22;14078;50.974;6.786;2023-10-13T08:45:38;19.00;99.90
26378;DHT22;14078;50.974;6.786;2023-10-13T08:48:26;19.00;99.90
26378;DHT22;14078;50.974;6.786;2023-10-13T08:50:58;19.10;99.90
26378;DHT22;14078;50.974;6.786;2023-10-13T08:53:33;19.20;99.90
26378;DHT22;14078;50.974;6.786;2023-10-13T08:56:10;19.40;99.90
26378;DHT22;14078;50.974;6.786;2023-10-13T08:58:42;19.60;99.90
26378;DHT22;14078;50.974;6.786;2023-10-13T09:01:32;19.60;99.90
26378;DHT22;14078;50.974;6.786;2023-10-13T09:04:08;19.60;99.90
26378;DHT22;14078;50.974;6.786;2023-10-13T09:06:48;19.70;99.90
26378;DHT22;14078;50.974;6.786;2023-10-13T09:09:26;19.90;99.90
26378;DHT22;14078;50.974;6.786;2023-10-13T09:11:53;20.00;99.90
26378;DHT22;14078;50.974;6.786;2023-10-13T09:14:33;20.20;99.90
26378;DHT22;14078;50.974;6.786;2023-10-13T09:17:05;20.50;99.90
26378;DHT22;14078;50.974;6.786;2023-10-13T09:19:49;20.60;99.90
26378;DHT22;14078;50.974;6.786;2023-10-13T09:22:22;20.80;99.90
26378;DHT22;14078;50.974;6.786;2023-10-13T09:24:55;20.90;99.90
26378;DHT22;14078;50.974;6.786;2023-10-13T09:27:24;21.00;96.30
26378;DHT22;14078;50.974;6.786;2023-10-13T09:29:56;21.00;93.40
26378;DHT22;14078;50.974;6.786;2023-10-13T09:32:22;21.00;91.80
26378;DHT22;14078;50.974;6.786;2023-10-13T09:34:50;21.00;92.10
26378;DHT22;14078;50.974;6.786;2023-10-13T09:37:16;21.00;99.30
26378;DHT22;14078;50.974;6.786;2023-10-13T09:39:47;21.10;71.00
26378;DHT22;14078;50.974;6.786;2023-10-13T09:42:18;21.10;57.40
26378;DHT22;14078;50.974;6.786;2023-10-13T09:44:45;21.20;48.70
26378;DHT22;14078;50.974;6.786;2023-10-13T09:47:21;21.30;60.30
26378;DHT22;14078;50.974;6.786;2023-10-13T09:49:59;21.30;40.80
26378;DHT22;14078;50.974;6.786;2023-10-13T09:52:31;21.40;36.30
26378;DHT22;14078;50.974;6.786;2023-10-13T09:55:13;21.50;17.40
26378;DHT22;14078;50.974;6.786;2023-10-13T09:57:47;21.50;29.50
26378;DHT22;14078;50.974;6.786;2023-10-13T10:00:17;21.70;1.00
26378;DHT22;14078;50.974;6.786;2023-10-13T10:03:10;21.70;22.00
26378;DHT22;14078;50.974;6.786;2023-10-13T10:06:01;21.90;27.10
26378;DHT22;14078;50.974;6.786;2023-10-13T10:08:32;22.10;4.00
26378;DHT22;14078;50.974;6.786;2023-10-13T10:14:04;22.30;99.90
26378;DHT22;14078;50.974;6.786;2023-10-13T10:16:39;22.40;99.90
26378;DHT22;14078;50.974;6.786;2023-10-13T10:19:12;22.50;99.90
26378;DHT22;14078;50.974;6.786;2023-10-13T10:21:40;22.50;99.90
26378;DHT22;14078;50.974;6.786;2023-10-13T10:24:16;22.50;99.90
26378;DHT22;14078;50.974;6.786;2023-10-13T10:26:55;22.60;1.00
26378;DHT22;14078;50.974;6.786;2023-10-13T10:29:22;22.70;99.90
26378;DHT22;14078;50.974;6.786;2023-10-13T10:31:49;22.70;1.00
26378;DHT22;14078;50.974;6.786;2023-10-13T10:34:17;22.70;1.00
26378;DHT22;14078;50.974;6.786;2023-10-13T10:36:53;22.70;1.00
26378;DHT22;14078;50.974;6.786;2023-10-13T10:39:20;22.80;1.00
26378;DHT22;14078;50.974;6.786;2023-10-13T10:42:08;22.90;1.00
26378;DHT22;14078;50.974;6.786;2023-10-13T10:44:40;23.00;99.90
26378;DHT22;14078;50.974;6.786;2023-10-13T10:47:10;23.00;1.00
26378;DHT22;14078;50.974;6.786;2023-10-13T10:49:37;23.10;1.00
26378;DHT22;14078;50.974;6.786;2023-10-13T10:52:09;23.10;99.90
26378;DHT22;14078;50.974;6.786;2023-10-13T10:54:43;23.30;1.00
26378;DHT22;14078;50.974;6.786;2023-10-13T10:57:17;23.40;1.00
26378;DHT22;14078;50.974;6.786;2023-10-13T10:59:44;23.40;1.00
26378;DHT22;14078;50.974;6.786;2023-10-13T11:02:11;23.30;1.00
26378;DHT22;14078;50.974;6.786;2023-10-13T11:04:41;23.50;99.90
26378;DHT22;14078;50.974;6.786;2023-10-13T11:07:21;23.60;1.00
26378;DHT22;14078;50.974;6.786;2023-10-13T11:09:49;23.70;99.90
26378;DHT22;14078;50.974;6.786;2023-10-13T11:12:19;23.80;99.90
26378;DHT22;14078;50.974;6.786;2023-10-13T11:15:02;23.80;99.90
26378;DHT22;14078;50.974;6.786;2023-10-13T11:17:30;23.70;99.90
26378;DHT22;14078;50.974;6.786;2023-10-13T11:20:11;23.70;99.90
26378;DHT22;14078;50.974;6.786;2023-10-13T11:22:53;23.70;99.90
26378;DHT22;14078;50.974;6.786;2023-10-13T11:25:23;23.60;99.90
26378;DHT22;14078;50.974;6.786;2023-10-13T11:27:55;23.60;99.90
26378;DHT22;14078;50.974;6.786;2023-10-13T11:30:24;23.50;99.90
26378;DHT22;14078;50.974;6.786;2023-10-13T11:33:08;23.50;99.90
26378;DHT22;14078;50.974;6.786;2023-10-13T11:35:36;23.50;99.90
26378;DHT22;14078;50.974;6.786;2023-10-13T11:38:23;23.50;99.90
26378;DHT22;14078;50.974;6.786;2023-10-13T11:40:54;23.50;99.90
26378;DHT22;14078;50.974;6.786;2023-10-13T11:43:34;23.50;99.90
26378;DHT22;14078;50.974;6.786;2023-10-13T11:46:13;23.50;99.90
26378;DHT22;14078;50.974;6.786;2023-10-13T11:48:42;23.50;99.90
26378;DHT22;14078;50.974;6.786;2023-10-13T11:51:09;23.60;99.90
26378;DHT22;14078;50.974;6.786;2023-10-13T11:53:44;23.50;99.90
26378;DHT22;14078;50.974;6.786;2023-10-13T11:56:13;23.60;99.90
26378;DHT22;14078;50.974;6.786;2023-10-13T11:58:42;23.50;99.90
26378;DHT22;14078;50.974;6.786;2023-10-13T12:01:11;23.40;99.90
26378;DHT22;14078;50.974;6.786;2023-10-13T12:03:47;23.30;99.90
26378;DHT22;14078;50.974;6.786;2023-10-13T12:06:32;23.40;99.90
26378;DHT22;14078;50.974;6.786;2023-10-13T12:09:13;23.30;99.90
26378;DHT22;14078;50.974;6.786;2023-10-13T12:12:04;23.40;99.90
26378;DHT22;14078;50.974;6.786;2023-10-13T12:14:31;23.40;99.90
26378;DHT22;14078;50.974;6.786;2023-10-13T12:17:03;23.30;99.90
26378;DHT22;14078;50.974;6.786;2023-10-13T12:19:35;23.30;99.90
26378;DHT22;14078;50.974;6.786;2023-10-13T12:22:04;23.30;99.90
26378;DHT22;14078;50.974;6.786;2023-10-13T12:24:35;23.20;99.90
26378;DHT22;14078;50.974;6.786;2023-10-13T12:27:08;23.20;99.90
26378;DHT22;14078;50.974;6.786;2023-10-13T12:29:45;23.20;99.90
26378;DHT22;14078;50.974;6.786;2023-10-13T12:32:12;23.20;99.90
26378;DHT22;14078;50.974;6.786;2023-10-13T12:34:40;23.30;99.90
26378;DHT22;14078;50.974;6.786;2023-10-13T12:37:23;23.30;99.90
26378;DHT22;14078;50.974;6.786;2023-10-13T12:40:18;23.30;99.90
26378;DHT22;14078;50.974;6.786;2023-10-13T12:43:02;23.50;99.90
26378;DHT22;14078;50.974;6.786;2023-10-13T12:45:48;23.60;99.90
26378;DHT22;14078;50.974;6.786;2023-10-13T12:48:33;23.60;99.90
26378;DHT22;14078;50.974;6.786;2023-10-13T12:51:18;23.60;99.90
26378;DHT22;14078;50.974;6.786;2023-10-13T12:54:06;23.50;99.90
26378;DHT22;14078;50.974;6.786;2023-10-13T12:56:40;23.60;99.90
26378;DHT22;14078;50.974;6.786;2023-10-13T12:59:08;23.50;99.90
26378;DHT22;14078;50.974;6.786;2023-10-13T13:01:39;23.60;99.90
26378;DHT22;14078;50.974;6.786;2023-10-13T13:04:08;23.50;99.90
26378;DHT22;14078;50.974;6.786;2023-10-13T13:06:37;23.50;99.90
26378;DHT22;14078;50.974;6.786;2023-10-13T13:09:05;23.40;99.90
26378;DHT22;14078;50.974;6.786;2023-10-13T13:11:34;23.40;99.90
26378;DHT22;14078;50.974;6.786;2023-10-13T13:14:06;23.50;99.90
26378;DHT22;14078;50.974;6.786;2023-10-13T13:16:34;23.60;99.90
26378;DHT22;14078;50.974;6.786;2023-10-13T13:19:04;23.50;99.90
26378;DHT22;14078;50.974;6.786;2023-10-13T13:21:35;23.40;99.90
26378;DHT22;14078;50.974;6.786;2023-10-13T13:24:02;23.30;99.90
26378;DHT22;14078;50.974;6.786;2023-10-13T13:26:30;23.30;99.90
26378;DHT22;14078;50.974;6.786;2023-10-13T13:28:57;23.20;99.90
26378;DHT22;14078;50.974;6.786;2023-10-13T13:31:26;23.20;99.90
26378;DHT22;14078;50.974;6.786;2023-10-13T13:33:54;23.10;99.90
26378;DHT22;14078;50.974;6.786;2023-10-13T13:36:21;23.00;99.90
26378;DHT22;14078;50.974;6.786;2023-10-13T13:38:48;23.00;99.90
26378;DHT22;14078;50.974;6.786;2023-10-13T13:41:17;22.90;99.90
26378;DHT22;14078;50.974;6.786;2023-10-13T13:43:44;22.80;99.90
26378;DHT22;14078;50.974;6.786;2023-10-13T13:46:24;22.80;99.90
26378;DHT22;14078;50.974;6.786;2023-10-13T13:48:54;22.70;99.90
26378;DHT22;14078;50.974;6.786;2023-10-13T13:51:25;22.70;99.90
26378;DHT22;14078;50.974;6.786;2023-10-13T13:53:54;22.70;99.90
26378;DHT22;14078;50.974;6.786;2023-10-13T13:56:21;22.80;99.90
26378;DHT22;14078;50.974;6.786;2023-10-13T13:58:51;22.90;99.90
26378;DHT22;14078;50.974;6.786;2023-10-13T14:01:18;22.90;99.90
26378;DHT22;14078;50.974;6.786;2023-10-13T14:03:48;23.00;99.90
26378;DHT22;14078;50.974;6.786;2023-10-13T14:06:18;23.00;99.90
26378;DHT22;14078;50.974;6.786;2023-10-13T14:08:47;23.00;99.90
26378;DHT22;14078;50.974;6.786;2023-10-13T14:11:16;23.00;99.90
26378;DHT22;14078;50.974;6.786;2023-10-13T14:14:10;23.10;99.90
26378;DHT22;14078;50.974;6.786;2023-10-13T14:16:39;23.00;99.90
26378;DHT22;14078;50.974;6.786;2023-10-13T14:19:10;23.00;99.90
26378;DHT22;14078;50.974;6.786;2023-10-13T14:21:38;23.00;96.50
26378;DHT22;14078;50.974;6.786;2023-10-13T14:24:05;23.00;99.90
26378;DHT22;14078;50.974;6.786;2023-10-13T14:26:38;23.00;99.90
26378;DHT22;14078;50.974;6.786;2023-10-13T14:29:08;22.90;99.90
26378;DHT22;14078;50.974;6.786;2023-10-13T14:31:36;22.90;95.00
26378;DHT22;14078;50.974;6.786;2023-10-13T14:34:03;22.80;99.90
26378;DHT22;14078;50.974;6.786;2023-10-13T14:36:30;22.90;99.90
26378;DHT22;14078;50.974;6.786;2023-10-13T14:39:01;22.90;94.80
26378;DHT22;14078;50.974;6.786;2023-10-13T14:41:28;22.80;99.90
26378;DHT22;14078;50.974;6.786;2023-10-13T14:43:56;22.70;99.90
26378;DHT22;14078;50.974;6.786;2023-10-13T14:46:30;22.60;99.90
26378;DHT22;14078;50.974;6.786;2023-10-13T14:49:01;22.50;99.90
26378;DHT22;14078;50.974;6.786;2023-10-13T14:51:28;22.50;99.90
26378;DHT22;14078;50.974;6.786;2023-10-13T14:53:55;22.50;99.90
26378;DHT22;14078;50.974;6.786;2023-10-13T14:56:23;22.50;99.90
26378;DHT22;14078;50.974;6.786;2023-10-13T14:58:51;22.40;99.90
26378;DHT22;14078;50.974;6.786;2023-10-13T15:01:20;22.50;99.90
26378;DHT22;14078;50.974;6.786;2023-10-13T15:03:48;22.50;99.90
26378;DHT22;14078;50.974;6.786;2023-10-13T15:06:15;22.40;99.90
26378;DHT22;14078;50.974;6.786;2023-10-13T15:08:43;22.50;99.90
26378;DHT22;14078;50.974;6.786;2023-10-13T15:11:11;22.40;99.90
26378;DHT22;14078;50.974;6.786;2023-10-13T15:13:40;22.40;99.90
26378;DHT22;14078;50.974;6.786;2023-10-13T15:16:14;22.40;99.90
26378;DHT22;14078;50.974;6.786;2023-10-13T15:18:42;22.40;99.90
26378;DHT22;14078;50.974;6.786;2023-10-13T15:21:09;22.40;91.60
26378;DHT22;14078;50.974;6.786;2023-10-13T15:23:36;22.40;92.10
26378;DHT22;14078;50.974;6.786;2023-10-13T15:26:08;22.40;83.60
26378;DHT22;14078;50.974;6.786;2023-10-13T15:28:36;22.30;94.80
26378;DHT22;14078;50.974;6.786;2023-10-13T15:31:10;22.30;74.40
26378;DHT22;14078;50.974;6.786;2023-10-13T15:33:50;22.30;63.50
26378;DHT22;14078;50.974;6.786;2023-10-13T15:36:20;22.30;70.20
26378;DHT22;14078;50.974;6.786;2023-10-13T15:38:47;22.30;67.00
26378;DHT22;14078;50.974;6.786;2023-10-13T15:41:20;22.40;74.90
26378;DHT22;14078;50.974;6.786;2023-10-13T15:43:47;22.30;87.00
26378;DHT22;14078;50.974;6.786;2023-10-13T15:46:16;22.30;89.30
26378;DHT22;14078;50.974;6.786;2023-10-13T15:48:43;22.10;99.90
26378;DHT22;14078;50.974;6.786;2023-10-13T15:51:11;22.10;99.90
26378;DHT22;14078;50.974;6.786;2023-10-13T15:53:38;22.00;99.90
26378;DHT22;14078;50.974;6.786;2023-10-13T15:56:05;22.00;99.90
26378;DHT22;14078;50.974;6.786;2023-10-13T15:58:37;21.90;99.90
26378;DHT22;14078;50.974;6.786;2023-10-13T16:01:03;21.80;99.90
26378;DHT22;14078;50.974;6.786;2023-10-13T16:03:31;21.90;99.70
26378;DHT22;14078;50.974;6.786;2023-10-13T16:05:58;21.90;99.90
26378;DHT22;14078;50.974;6.786;2023-10-13T16:08:29;21.80;99.90
26378;DHT22;14078;50.974;6.786;2023-10-13T16:11:03;21.90;94.20